Bookmark and Share
Track history (hours):
 

Billie H

More information available from US FCC via Universal Licensing System and Coast Guard Vessel Documentation Center.

Last reported at 2013-Apr-13 20:32 UTC. Time now 2014-Apr-24 02:25 UTC.
Position N 54°24' W 130°38'.
Warning: this ship's position is years out of date!

Type: Tow > 200 m length. MMSI: 366751770.

NotesDate/timePositionNaut miles runAvg speedWind from/ knotsBaromVisibWave heightAir tempDewpointWater temp
2013-Apr-13 20:32N 54°24' W 130°38'9 9.4
2013-Apr-13 19:33N 54°16' W 130°32'305 7.8
2013-Apr-12 04:22N 50°16' W 125°24'4 5.3
2013-Apr-12 03:32N 50°11' W 125°22'14 9.7
2013-Apr-12 02:09N 49°60' W 125°12'6 9.6
2013-Apr-12 01:32N 49°56' W 125°05'9 9.1
2013-Apr-12 00:32N 49°50' W 124°54'9 9.3
2013-Apr-11 23:32N 49°44' W 124°43'9 9.0
2013-Apr-11 22:33N 49°38' W 124°32'9 9.0
2013-Apr-11 21:33N 49°34' W 124°20'9 8.7
2013-Apr-11 20:34N 49°29' W 124°09'8 8.4
2013-Apr-11 19:34N 49°24' W 123°59'9 8.4
2013-Apr-11 18:33N 49°19' W 123°48'8 8.2
2013-Apr-11 17:33N 49°14' W 123°39'8 7.7
2013-Apr-11 16:33N 49°09' W 123°29'7 6.8
2013-Apr-11 15:34N 49°05' W 123°21'7 7.0
2013-Apr-11 14:34N 48°60' W 123°14'8 7.6
2013-Apr-11 13:33N 48°55' W 123°05'9 8.8
2013-Apr-11 12:32N 48°49' W 122°54'9 9.2
2013-Apr-11 11:33N 48°43' W 122°44'9 9.5
2013-Apr-11 10:33N 48°34' W 122°45'10 9.8
2013-Apr-11 09:33N 48°24' W 122°44'8 8.2
2013-Apr-11 08:33N 48°16' W 122°48'6 6.2
2013-Apr-11 07:33N 48°10' W 122°44'9 8.9
2013-Apr-11 06:33N 48°03' W 122°37'20 9.8
2013-Apr-11 04:34N 47°45' W 122°26'9 8.8
2013-Apr-11 03:33N 47°36' W 122°22'2 1.7
2013-Apr-11 02:34N 47°34' W 122°22'0 0.0
2013-Apr-11 01:33N 47°34' W 122°22'0 0.0
2013-Apr-11 00:33N 47°34' W 122°22'1 0.9
2013-Apr-10 23:33N 47°34' W 122°21'2 1.7
2013-Apr-10 22:33N 47°35' W 122°21'0 0.0
2013-Apr-10 21:32N 47°35' W 122°21'1 0.5
2013-Apr-10 20:33N 47°35' W 122°22'  
2013-Apr-07 17:33N 47°34' W 122°21'3 3.3
2013-Apr-07 16:33N 47°37' W 122°24'7 6.7
2013-Apr-07 15:33N 47°43' W 122°28'8 8.4
2013-Apr-07 14:33N 47°51' W 122°29'7 7.2
2013-Apr-07 13:33N 47°57' W 122°35'7 7.3
2013-Apr-07 12:33N 48°03' W 122°40'7 6.8
2013-Apr-07 11:33N 48°09' W 122°45'9 8.7
2013-Apr-07 10:30N 48°19' W 122°47'8 8.4
2013-Apr-07 09:33N 48°26' W 122°45'7 6.9
2013-Apr-07 08:33N 48°33' W 122°45'7 6.8
2013-Apr-07 07:33N 48°40' W 122°44'8 7.8
2013-Apr-07 06:33N 48°46' W 122°51'18 8.8
2013-Apr-07 04:33N 48°56' W 123°13'9 9.3
2013-Apr-07 03:33N 49°03' W 123°23'9 9.1
2013-Apr-07 02:33N 49°08' W 123°34'9 8.8
2013-Apr-07 01:33N 49°14' W 123°44'8 8.4
2013-Apr-07 00:33N 49°20' W 123°54'8 8.5
2013-Apr-06 23:33N 49°25' W 124°04'9 8.6
2013-Apr-06 22:33N 49°31' W 124°13'9 9.2
2013-Apr-06 21:33N 49°35' W 124°26'9 8.8
2013-Apr-06 20:33N 49°41' W 124°37'9 8.9
2013-Apr-06 19:33N 49°46' W 124°48'9 9.4
2013-Apr-06 18:33N 49°52' W 124°59'9 9.1
2013-Apr-06 17:32N 49°58' W 125°10'9 8.7
2013-Apr-06 16:31N 50°06' W 125°17'7 6.6
2013-Apr-06 15:30N 50°11' W 125°22'3 3.5
2013-Apr-06 14:33N 50°15' W 125°23'2 2.0
2013-Apr-06 13:29N 50°17' W 125°24'151 6.9
2013-Apr-05 15:33N 52°07' W 128°08'6 6.3
2013-Apr-05 14:33N 52°13' W 128°11'8 8.3
2013-Apr-05 13:33N 52°15' W 128°24'8 8.1
2013-Apr-05 12:33N 52°22' W 128°32'9 8.6
2013-Apr-05 11:33N 52°30' W 128°28'9 9.1
2013-Apr-05 10:33N 52°39' W 128°32'10 9.7
2013-Apr-05 09:33N 52°49' W 128°32'10 9.9
2013-Apr-05 08:33N 52°59' W 128°31'1010.2
2013-Apr-05 07:32N 53°08' W 128°36'9 9.3
2013-Apr-05 06:33N 53°14' W 128°48'17 8.4
2013-Apr-05 04:33N 53°20' W 129°15'9 8.9
2013-Apr-05 03:33N 53°26' W 129°26'24 8.1
2013-Apr-05 00:33N 53°45' W 129°52'9 9.1
2013-Apr-04 23:33N 53°51' W 130°03'9 8.8
2013-Apr-04 22:33N 53°58' W 130°12'9 8.8
2013-Apr-04 21:33N 54°06' W 130°20'9 9.0
2013-Apr-04 20:33N 54°13' W 130°29'9 8.9
2013-Apr-04 19:33N 54°21' W 130°36'9 9.1
2013-Apr-04 18:33N 54°30' W 130°42'19 8.8
2013-Apr-04 16:25N 54°46' W 130°57'12 9.4
2013-Apr-04 15:06N 54°58' W 131°05'6 9.6
2013-Apr-04 14:31N 55°03' W 131°08'9 8.9
2013-Apr-04 13:34N 55°11' W 131°15'9 9.1
2013-Apr-04 12:33N 55°16' W 131°28'7 6.9
2013-Apr-04 11:31N 55°19' W 131°39'2 0.7
2013-Apr-04 08:11N 55°21' W 131°42'0 0.0
2013-Apr-04 07:31N 55°21' W 131°42'0 0.0
2013-Apr-04 06:33N 55°21' W 131°42'0 0.0
2013-Apr-04 04:18N 55°21' W 131°42'15 6.5
2013-Apr-04 02:04N 55°30' W 132°02'5 9.3
2013-Apr-04 01:33N 55°33' W 132°09'  

Dump ship's entire track history

sailing weather and tide predictions

Billie H — WCY4992 — position and weather